sensor_id;sensor_type;location;lat;lon;timestamp;temperature;humidity
11559;DHT22;5835;42.930;25.178;2022-09-09T00:01:14;17.00;99.90
11559;DHT22;5835;42.930;25.178;2022-09-09T00:03:52;17.20;99.90
11559;DHT22;5835;42.930;25.178;2022-09-09T00:06:26;17.00;99.90
11559;DHT22;5835;42.930;25.178;2022-09-09T00:09:02;16.60;99.90
11559;DHT22;5835;42.930;25.178;2022-09-09T00:11:39;16.40;99.90
11559;DHT22;5835;42.930;25.178;2022-09-09T00:14:13;16.20;99.90
11559;DHT22;5835;42.930;25.178;2022-09-09T00:16:46;16.30;99.90
11559;DHT22;5835;42.930;25.178;2022-09-09T00:19:20;16.60;99.90
11559;DHT22;5835;42.930;25.178;2022-09-09T00:21:55;16.70;99.90
11559;DHT22;5835;42.930;25.178;2022-09-09T00:24:30;16.80;99.90
11559;DHT22;5835;42.930;25.178;2022-09-09T00:27:07;16.60;99.90
11559;DHT22;5835;42.930;25.178;2022-09-09T00:29:41;16.50;99.90
11559;DHT22;5835;42.930;25.178;2022-09-09T00:32:13;16.60;99.90
11559;DHT22;5835;42.930;25.178;2022-09-09T00:34:47;16.60;99.90
11559;DHT22;5835;42.930;25.178;2022-09-09T00:37:16;16.30;99.90
11559;DHT22;5835;42.930;25.178;2022-09-09T00:39:46;16.00;99.90
11559;DHT22;5835;42.930;25.178;2022-09-09T00:42:18;16.00;99.90
11559;DHT22;5835;42.930;25.178;2022-09-09T00:44:56;15.90;99.90
11559;DHT22;5835;42.930;25.178;2022-09-09T00:47:46;15.90;99.90
11559;DHT22;5835;42.930;25.178;2022-09-09T00:50:34;15.80;99.90
11559;DHT22;5835;42.930;25.178;2022-09-09T00:53:28;15.90;99.90
11559;DHT22;5835;42.930;25.178;2022-09-09T00:56:08;16.20;99.90
11559;DHT22;5835;42.930;25.178;2022-09-09T00:58:38;16.20;99.90
11559;DHT22;5835;42.930;25.178;2022-09-09T01:01:10;16.20;99.90
11559;DHT22;5835;42.930;25.178;2022-09-09T01:03:42;16.20;99.90
11559;DHT22;5835;42.930;25.178;2022-09-09T01:06:16;16.30;99.90
11559;DHT22;5835;42.930;25.178;2022-09-09T01:11:52;16.50;99.90
11559;DHT22;5835;42.930;25.178;2022-09-09T01:14:40;16.60;99.90
11559;DHT22;5835;42.930;25.178;2022-09-09T01:17:15;16.60;99.90
11559;DHT22;5835;42.930;25.178;2022-09-09T01:19:55;16.40;99.90
11559;DHT22;5835;42.930;25.178;2022-09-09T01:22:33;16.50;99.90
11559;DHT22;5835;42.930;25.178;2022-09-09T01:27:59;16.20;99.90
11559;DHT22;5835;42.930;25.178;2022-09-09T01:30:28;16.10;99.90
11559;DHT22;5835;42.930;25.178;2022-09-09T01:32:57;16.10;99.90
11559;DHT22;5835;42.930;25.178;2022-09-09T01:35:41;16.00;99.90
11559;DHT22;5835;42.930;25.178;2022-09-09T01:38:10;16.00;99.90
11559;DHT22;5835;42.930;25.178;2022-09-09T01:40:38;16.00;99.90
11559;DHT22;5835;42.930;25.178;2022-09-09T01:43:07;16.10;99.90
11559;DHT22;5835;42.930;25.178;2022-09-09T01:45:38;16.10;99.90
11559;DHT22;5835;42.930;25.178;2022-09-09T01:48:06;16.10;99.90
11559;DHT22;5835;42.930;25.178;2022-09-09T01:50:34;16.30;99.90
11559;DHT22;5835;42.930;25.178;2022-09-09T01:53:02;16.30;99.90
11559;DHT22;5835;42.930;25.178;2022-09-09T01:55:33;16.30;99.90
11559;DHT22;5835;42.930;25.178;2022-09-09T01:58:14;16.30;99.90
11559;DHT22;5835;42.930;25.178;2022-09-09T02:00:51;16.20;99.90
11559;DHT22;5835;42.930;25.178;2022-09-09T02:03:27;16.00;99.90
11559;DHT22;5835;42.930;25.178;2022-09-09T02:06:03;15.80;99.90
11559;DHT22;5835;42.930;25.178;2022-09-09T02:08:39;15.60;99.90
11559;DHT22;5835;42.930;25.178;2022-09-09T02:11:11;15.80;99.90
11559;DHT22;5835;42.930;25.178;2022-09-09T02:13:43;15.90;99.90
11559;DHT22;5835;42.930;25.178;2022-09-09T02:16:14;15.80;99.90
11559;DHT22;5835;42.930;25.178;2022-09-09T02:18:46;15.80;99.90
11559;DHT22;5835;42.930;25.178;2022-09-09T02:21:15;15.80;99.90
11559;DHT22;5835;42.930;25.178;2022-09-09T02:23:44;15.80;99.90
11559;DHT22;5835;42.930;25.178;2022-09-09T02:26:16;15.90;99.90
11559;DHT22;5835;42.930;25.178;2022-09-09T02:28:50;15.70;99.90
11559;DHT22;5835;42.930;25.178;2022-09-09T02:31:22;15.50;99.90
11559;DHT22;5835;42.930;25.178;2022-09-09T02:33:53;15.40;99.90
11559;DHT22;5835;42.930;25.178;2022-09-09T02:36:25;15.40;99.90
11559;DHT22;5835;42.930;25.178;2022-09-09T02:38:55;15.30;99.90
11559;DHT22;5835;42.930;25.178;2022-09-09T02:41:25;15.30;99.90
11559;DHT22;5835;42.930;25.178;2022-09-09T02:43:56;15.20;99.90
11559;DHT22;5835;42.930;25.178;2022-09-09T02:46:48;15.30;99.90
11559;DHT22;5835;42.930;25.178;2022-09-09T02:49:21;15.20;99.90
11559;DHT22;5835;42.930;25.178;2022-09-09T02:51:56;15.10;99.90
11559;DHT22;5835;42.930;25.178;2022-09-09T02:54:29;15.00;99.90
11559;DHT22;5835;42.930;25.178;2022-09-09T02:57:02;15.00;99.90
11559;DHT22;5835;42.930;25.178;2022-09-09T02:59:32;15.00;99.90
11559;DHT22;5835;42.930;25.178;2022-09-09T03:02:00;15.10;99.90
11559;DHT22;5835;42.930;25.178;2022-09-09T03:04:28;15.20;99.90
11559;DHT22;5835;42.930;25.178;2022-09-09T03:06:57;15.20;99.90
11559;DHT22;5835;42.930;25.178;2022-09-09T03:09:25;15.40;99.90
11559;DHT22;5835;42.930;25.178;2022-09-09T03:11:53;15.30;99.90
11559;DHT22;5835;42.930;25.178;2022-09-09T03:14:20;15.50;99.90
11559;DHT22;5835;42.930;25.178;2022-09-09T03:16:52;15.50;99.90
11559;DHT22;5835;42.930;25.178;2022-09-09T03:19:20;15.40;99.90
11559;DHT22;5835;42.930;25.178;2022-09-09T03:21:48;15.30;99.90
11559;DHT22;5835;42.930;25.178;2022-09-09T03:24:15;15.30;99.90
11559;DHT22;5835;42.930;25.178;2022-09-09T03:26:43;15.30;99.90
11559;DHT22;5835;42.930;25.178;2022-09-09T03:29:11;15.30;99.90
11559;DHT22;5835;42.930;25.178;2022-09-09T03:31:40;15.20;99.90
11559;DHT22;5835;42.930;25.178;2022-09-09T03:34:10;15.20;99.90
11559;DHT22;5835;42.930;25.178;2022-09-09T03:36:39;15.20;99.90
11559;DHT22;5835;42.930;25.178;2022-09-09T03:39:07;15.10;99.90
11559;DHT22;5835;42.930;25.178;2022-09-09T03:41:35;15.10;99.90
11559;DHT22;5835;42.930;25.178;2022-09-09T03:44:03;15.10;99.90
11559;DHT22;5835;42.930;25.178;2022-09-09T03:46:31;15.10;99.90
11559;DHT22;5835;42.930;25.178;2022-09-09T03:48:59;15.10;99.90
11559;DHT22;5835;42.930;25.178;2022-09-09T03:51:28;15.00;99.90
11559;DHT22;5835;42.930;25.178;2022-09-09T03:53:56;14.90;99.90
11559;DHT22;5835;42.930;25.178;2022-09-09T03:56:24;14.80;99.90
11559;DHT22;5835;42.930;25.178;2022-09-09T03:58:51;14.90;99.90
11559;DHT22;5835;42.930;25.178;2022-09-09T04:01:19;14.90;99.90
11559;DHT22;5835;42.930;25.178;2022-09-09T04:03:46;14.90;99.90
11559;DHT22;5835;42.930;25.178;2022-09-09T04:06:14;15.10;99.90
11559;DHT22;5835;42.930;25.178;2022-09-09T04:08:44;15.30;99.90
11559;DHT22;5835;42.930;25.178;2022-09-09T04:11:14;15.30;99.90
11559;DHT22;5835;42.930;25.178;2022-09-09T04:13:42;15.40;99.90
11559;DHT22;5835;42.930;25.178;2022-09-09T04:16:11;15.40;99.90
11559;DHT22;5835;42.930;25.178;2022-09-09T04:18:38;15.70;99.90
11559;DHT22;5835;42.930;25.178;2022-09-09T04:21:06;15.70;99.90
11559;DHT22;5835;42.930;25.178;2022-09-09T04:23:34;15.80;99.90
11559;DHT22;5835;42.930;25.178;2022-09-09T04:26:03;15.80;99.90
11559;DHT22;5835;42.930;25.178;2022-09-09T04:28:33;15.80;99.90
11559;DHT22;5835;42.930;25.178;2022-09-09T04:31:05;15.80;99.90
11559;DHT22;5835;42.930;25.178;2022-09-09T04:33:33;15.70;99.90
11559;DHT22;5835;42.930;25.178;2022-09-09T04:36:01;15.70;99.90
11559;DHT22;5835;42.930;25.178;2022-09-09T04:38:28;15.80;99.90
11559;DHT22;5835;42.930;25.178;2022-09-09T04:40:56;15.90;99.90
11559;DHT22;5835;42.930;25.178;2022-09-09T04:43:26;16.00;99.90
11559;DHT22;5835;42.930;25.178;2022-09-09T04:45:53;16.10;99.90
11559;DHT22;5835;42.930;25.178;2022-09-09T04:48:21;16.20;99.90
11559;DHT22;5835;42.930;25.178;2022-09-09T04:50:57;16.10;99.90
11559;DHT22;5835;42.930;25.178;2022-09-09T04:53:25;16.40;99.90
11559;DHT22;5835;42.930;25.178;2022-09-09T04:56:00;16.70;99.90
11559;DHT22;5835;42.930;25.178;2022-09-09T04:58:30;16.80;99.90
11559;DHT22;5835;42.930;25.178;2022-09-09T05:01:04;16.40;99.90
11559;DHT22;5835;42.930;25.178;2022-09-09T05:03:32;16.20;99.90
11559;DHT22;5835;42.930;25.178;2022-09-09T05:06:04;16.20;99.90
11559;DHT22;5835;42.930;25.178;2022-09-09T05:08:32;16.30;99.90
11559;DHT22;5835;42.930;25.178;2022-09-09T05:11:00;16.50;99.90
11559;DHT22;5835;42.930;25.178;2022-09-09T05:13:29;16.90;99.90
11559;DHT22;5835;42.930;25.178;2022-09-09T05:15:58;16.80;99.90
11559;DHT22;5835;42.930;25.178;2022-09-09T05:18:25;16.70;99.90
11559;DHT22;5835;42.930;25.178;2022-09-09T05:20:59;16.70;99.90
11559;DHT22;5835;42.930;25.178;2022-09-09T05:23:27;16.80;99.90
11559;DHT22;5835;42.930;25.178;2022-09-09T05:25:58;16.90;99.90
11559;DHT22;5835;42.930;25.178;2022-09-09T05:28:26;17.00;99.90
11559;DHT22;5835;42.930;25.178;2022-09-09T05:31:00;17.20;99.90
11559;DHT22;5835;42.930;25.178;2022-09-09T05:33:30;17.40;99.90
11559;DHT22;5835;42.930;25.178;2022-09-09T05:35:58;17.50;99.90
11559;DHT22;5835;42.930;25.178;2022-09-09T05:38:27;17.50;99.90
11559;DHT22;5835;42.930;25.178;2022-09-09T05:40:55;17.60;99.90
11559;DHT22;5835;42.930;25.178;2022-09-09T05:43:24;17.70;99.90
11559;DHT22;5835;42.930;25.178;2022-09-09T05:46:01;17.70;99.90
11559;DHT22;5835;42.930;25.178;2022-09-09T05:48:30;18.00;99.90
11559;DHT22;5835;42.930;25.178;2022-09-09T05:50:59;18.20;99.90
11559;DHT22;5835;42.930;25.178;2022-09-09T05:53:27;18.30;99.90
11559;DHT22;5835;42.930;25.178;2022-09-09T05:56:02;18.40;99.90
11559;DHT22;5835;42.930;25.178;2022-09-09T05:58:30;18.20;99.90
11559;DHT22;5835;42.930;25.178;2022-09-09T06:01:04;18.20;99.90
11559;DHT22;5835;42.930;25.178;2022-09-09T06:03:33;18.20;99.90
11559;DHT22;5835;42.930;25.178;2022-09-09T06:06:02;18.30;99.90
11559;DHT22;5835;42.930;25.178;2022-09-09T06:08:31;18.50;99.90
11559;DHT22;5835;42.930;25.178;2022-09-09T06:11:03;18.50;99.90
11559;DHT22;5835;42.930;25.178;2022-09-09T06:13:33;18.70;99.90
11559;DHT22;5835;42.930;25.178;2022-09-09T06:16:02;18.80;99.90
11559;DHT22;5835;42.930;25.178;2022-09-09T06:18:30;18.90;99.90
11559;DHT22;5835;42.930;25.178;2022-09-09T06:20:58;18.90;99.90
11559;DHT22;5835;42.930;25.178;2022-09-09T06:23:27;19.10;99.90
11559;DHT22;5835;42.930;25.178;2022-09-09T06:26:03;19.30;99.90
11559;DHT22;5835;42.930;25.178;2022-09-09T06:28:31;19.40;99.90
11559;DHT22;5835;42.930;25.178;2022-09-09T06:30:59;19.50;99.90
11559;DHT22;5835;42.930;25.178;2022-09-09T06:33:31;19.40;99.90
11559;DHT22;5835;42.930;25.178;2022-09-09T06:35:59;19.50;99.90
11559;DHT22;5835;42.930;25.178;2022-09-09T06:38:27;19.70;99.90
11559;DHT22;5835;42.930;25.178;2022-09-09T06:40:56;19.80;99.90
11559;DHT22;5835;42.930;25.178;2022-09-09T06:43:24;19.90;99.90
11559;DHT22;5835;42.930;25.178;2022-09-09T06:45:56;19.80;99.90
11559;DHT22;5835;42.930;25.178;2022-09-09T06:48:24;20.00;99.90
11559;DHT22;5835;42.930;25.178;2022-09-09T06:51:00;20.10;99.90
11559;DHT22;5835;42.930;25.178;2022-09-09T06:53:28;20.30;99.90
11559;DHT22;5835;42.930;25.178;2022-09-09T06:55:55;20.50;99.90
11559;DHT22;5835;42.930;25.178;2022-09-09T06:58:23;20.60;99.90
11559;DHT22;5835;42.930;25.178;2022-09-09T07:00:51;20.60;99.90
11559;DHT22;5835;42.930;25.178;2022-09-09T07:03:18;20.80;99.90
11559;DHT22;5835;42.930;25.178;2022-09-09T07:05:55;21.00;99.90
11559;DHT22;5835;42.930;25.178;2022-09-09T07:08:23;21.00;99.90
11559;DHT22;5835;42.930;25.178;2022-09-09T07:10:51;21.30;99.90
11559;DHT22;5835;42.930;25.178;2022-09-09T07:13:19;21.50;99.90
11559;DHT22;5835;42.930;25.178;2022-09-09T07:15:51;21.60;99.90
11559;DHT22;5835;42.930;25.178;2022-09-09T07:18:18;21.80;99.90
11559;DHT22;5835;42.930;25.178;2022-09-09T07:20:54;22.00;99.90
11559;DHT22;5835;42.930;25.178;2022-09-09T07:23:24;22.20;99.90
11559;DHT22;5835;42.930;25.178;2022-09-09T07:25:52;22.50;99.90
11559;DHT22;5835;42.930;25.178;2022-09-09T07:28:20;22.70;99.90
11559;DHT22;5835;42.930;25.178;2022-09-09T07:30:53;22.80;99.90
11559;DHT22;5835;42.930;25.178;2022-09-09T07:33:22;23.00;99.90
11559;DHT22;5835;42.930;25.178;2022-09-09T07:35:50;23.20;99.90
11559;DHT22;5835;42.930;25.178;2022-09-09T07:38:19;23.30;99.90
11559;DHT22;5835;42.930;25.178;2022-09-09T07:40:48;23.40;99.90
11559;DHT22;5835;42.930;25.178;2022-09-09T07:43:16;23.60;99.90
11559;DHT22;5835;42.930;25.178;2022-09-09T07:45:45;23.90;99.90
11559;DHT22;5835;42.930;25.178;2022-09-09T07:48:12;24.10;99.90
11559;DHT22;5835;42.930;25.178;2022-09-09T07:50:40;24.20;99.90
11559;DHT22;5835;42.930;25.178;2022-09-09T07:53:08;24.30;99.90
11559;DHT22;5835;42.930;25.178;2022-09-09T07:55:37;24.30;99.90
11559;DHT22;5835;42.930;25.178;2022-09-09T07:58:05;24.50;99.90
11559;DHT22;5835;42.930;25.178;2022-09-09T08:00:32;24.70;99.90
11559;DHT22;5835;42.930;25.178;2022-09-09T08:03:00;24.90;99.90
11559;DHT22;5835;42.930;25.178;2022-09-09T08:05:28;25.00;99.90
11559;DHT22;5835;42.930;25.178;2022-09-09T08:07:55;25.20;99.90
11559;DHT22;5835;42.930;25.178;2022-09-09T08:10:26;25.30;99.90
11559;DHT22;5835;42.930;25.178;2022-09-09T08:12:55;25.50;99.90
11559;DHT22;5835;42.930;25.178;2022-09-09T08:15:22;25.60;99.90
11559;DHT22;5835;42.930;25.178;2022-09-09T08:17:50;25.70;99.90
11559;DHT22;5835;42.930;25.178;2022-09-09T08:20:18;26.00;99.90
11559;DHT22;5835;42.930;25.178;2022-09-09T08:22:49;26.40;99.90
11559;DHT22;5835;42.930;25.178;2022-09-09T08:25:17;26.70;99.90
11559;DHT22;5835;42.930;25.178;2022-09-09T08:27:44;26.80;99.90
11559;DHT22;5835;42.930;25.178;2022-09-09T08:30:14;27.00;99.90
11559;DHT22;5835;42.930;25.178;2022-09-09T08:32:41;27.40;99.90
11559;DHT22;5835;42.930;25.178;2022-09-09T08:35:09;27.50;99.90
11559;DHT22;5835;42.930;25.178;2022-09-09T08:37:37;27.70;99.90
11559;DHT22;5835;42.930;25.178;2022-09-09T08:40:07;27.90;99.90
11559;DHT22;5835;42.930;25.178;2022-09-09T08:42:40;28.00;99.90
11559;DHT22;5835;42.930;25.178;2022-09-09T08:45:24;27.90;99.90
11559;DHT22;5835;42.930;25.178;2022-09-09T08:48:11;28.00;99.90
11559;DHT22;5835;42.930;25.178;2022-09-09T08:50:40;28.10;99.90
11559;DHT22;5835;42.930;25.178;2022-09-09T08:53:13;28.20;99.90
11559;DHT22;5835;42.930;25.178;2022-09-09T08:55:45;28.40;99.90
11559;DHT22;5835;42.930;25.178;2022-09-09T08:58:17;28.70;99.90
11559;DHT22;5835;42.930;25.178;2022-09-09T09:01:03;28.90;99.90
11559;DHT22;5835;42.930;25.178;2022-09-09T09:03:45;29.20;98.00
11559;DHT22;5835;42.930;25.178;2022-09-09T09:06:26;29.50;98.40
11559;DHT22;5835;42.930;25.178;2022-09-09T09:09:05;29.60;96.20
11559;DHT22;5835;42.930;25.178;2022-09-09T09:11:38;29.70;95.20
11559;DHT22;5835;42.930;25.178;2022-09-09T09:14:10;29.80;92.20
11559;DHT22;5835;42.930;25.178;2022-09-09T09:16:44;29.90;90.50
11559;DHT22;5835;42.930;25.178;2022-09-09T09:19:15;30.00;90.00
11559;DHT22;5835;42.930;25.178;2022-09-09T09:21:45;30.20;87.90
11559;DHT22;5835;42.930;25.178;2022-09-09T09:24:19;30.20;85.30
11559;DHT22;5835;42.930;25.178;2022-09-09T09:26:47;30.30;86.60
11559;DHT22;5835;42.930;25.178;2022-09-09T09:29:16;30.50;80.80
11559;DHT22;5835;42.930;25.178;2022-09-09T09:31:50;30.60;76.50
11559;DHT22;5835;42.930;25.178;2022-09-09T09:34:20;30.80;78.50
11559;DHT22;5835;42.930;25.178;2022-09-09T09:36:53;31.00;83.30
11559;DHT22;5835;42.930;25.178;2022-09-09T09:39:26;31.10;79.00
11559;DHT22;5835;42.930;25.178;2022-09-09T09:41:54;31.10;77.10
11559;DHT22;5835;42.930;25.178;2022-09-09T09:44:24;30.90;77.50
11559;DHT22;5835;42.930;25.178;2022-09-09T09:47:06;30.80;78.60
11559;DHT22;5835;42.930;25.178;2022-09-09T09:49:34;30.90;76.90
11559;DHT22;5835;42.930;25.178;2022-09-09T09:52:02;31.00;76.30
11559;DHT22;5835;42.930;25.178;2022-09-09T09:54:32;31.10;74.60
11559;DHT22;5835;42.930;25.178;2022-09-09T09:57:09;31.10;74.30
11559;DHT22;5835;42.930;25.178;2022-09-09T09:59:37;31.30;73.70
11559;DHT22;5835;42.930;25.178;2022-09-09T10:02:19;31.00;71.90
11559;DHT22;5835;42.930;25.178;2022-09-09T10:04:49;31.60;73.90
11559;DHT22;5835;42.930;25.178;2022-09-09T10:07:27;31.60;75.90
11559;DHT22;5835;42.930;25.178;2022-09-09T10:09:56;31.30;73.60
11559;DHT22;5835;42.930;25.178;2022-09-09T10:12:35;31.50;72.90
11559;DHT22;5835;42.930;25.178;2022-09-09T10:15:21;31.40;70.90
11559;DHT22;5835;42.930;25.178;2022-09-09T10:18:01;31.20;71.30
11559;DHT22;5835;42.930;25.178;2022-09-09T10:20:38;31.40;72.30
11559;DHT22;5835;42.930;25.178;2022-09-09T10:23:20;31.80;73.10
11559;DHT22;5835;42.930;25.178;2022-09-09T10:26:03;31.70;72.40
11559;DHT22;5835;42.930;25.178;2022-09-09T10:28:53;31.90;70.90
11559;DHT22;5835;42.930;25.178;2022-09-09T10:31:27;31.90;72.40
11559;DHT22;5835;42.930;25.178;2022-09-09T10:34:06;31.50;70.40
11559;DHT22;5835;42.930;25.178;2022-09-09T10:36:43;31.40;69.20
11559;DHT22;5835;42.930;25.178;2022-09-09T10:39:23;31.70;69.30
11559;DHT22;5835;42.930;25.178;2022-09-09T10:41:58;31.70;66.90
11559;DHT22;5835;42.930;25.178;2022-09-09T10:44:50;31.70;66.50
11559;DHT22;5835;42.930;25.178;2022-09-09T10:47:44;31.90;67.10
11559;DHT22;5835;42.930;25.178;2022-09-09T10:50:40;31.60;66.30
11559;DHT22;5835;42.930;25.178;2022-09-09T10:53:16;31.80;65.20
11559;DHT22;5835;42.930;25.178;2022-09-09T10:55:51;31.90;66.00
11559;DHT22;5835;42.930;25.178;2022-09-09T10:58:24;32.30;68.00
11559;DHT22;5835;42.930;25.178;2022-09-09T11:00:55;32.00;66.00
11559;DHT22;5835;42.930;25.178;2022-09-09T11:03:26;32.10;65.80
11559;DHT22;5835;42.930;25.178;2022-09-09T11:06:01;32.10;65.30
11559;DHT22;5835;42.930;25.178;2022-09-09T11:08:34;32.00;64.50
11559;DHT22;5835;42.930;25.178;2022-09-09T11:11:03;32.60;65.30
11559;DHT22;5835;42.930;25.178;2022-09-09T11:13:37;33.00;63.70
11559;DHT22;5835;42.930;25.178;2022-09-09T11:16:16;32.90;61.80
11559;DHT22;5835;42.930;25.178;2022-09-09T11:18:47;32.70;61.70
11559;DHT22;5835;42.930;25.178;2022-09-09T11:21:22;32.70;65.10
11559;DHT22;5835;42.930;25.178;2022-09-09T11:23:55;32.50;61.40
11559;DHT22;5835;42.930;25.178;2022-09-09T11:26:30;32.30;61.40
11559;DHT22;5835;42.930;25.178;2022-09-09T11:29:22;32.90;61.90
11559;DHT22;5835;42.930;25.178;2022-09-09T11:32:01;32.70;61.00
11559;DHT22;5835;42.930;25.178;2022-09-09T11:34:44;32.80;61.00
11559;DHT22;5835;42.930;25.178;2022-09-09T11:37:29;33.00;60.80
11559;DHT22;5835;42.930;25.178;2022-09-09T11:40:09;33.10;61.00
11559;DHT22;5835;42.930;25.178;2022-09-09T11:42:42;33.60;61.80
11559;DHT22;5835;42.930;25.178;2022-09-09T11:45:15;33.50;59.90
11559;DHT22;5835;42.930;25.178;2022-09-09T11:47:52;33.30;60.10
11559;DHT22;5835;42.930;25.178;2022-09-09T11:50:35;33.40;59.00
11559;DHT22;5835;42.930;25.178;2022-09-09T11:56:06;33.00;58.90
11559;DHT22;5835;42.930;25.178;2022-09-09T11:58:40;32.80;57.80
11559;DHT22;5835;42.930;25.178;2022-09-09T12:01:28;33.10;58.00
11559;DHT22;5835;42.930;25.178;2022-09-09T12:06:51;33.50;59.20
11559;DHT22;5835;42.930;25.178;2022-09-09T12:09:32;34.80;57.80
11559;DHT22;5835;42.930;25.178;2022-09-09T12:12:23;34.40;55.50
11559;DHT22;5835;42.930;25.178;2022-09-09T12:15:23;34.50;58.10
11559;DHT22;5835;42.930;25.178;2022-09-09T12:17:55;34.40;57.10
11559;DHT22;5835;42.930;25.178;2022-09-09T12:20:30;34.70;58.00
11559;DHT22;5835;42.930;25.178;2022-09-09T12:23:13;34.60;57.30
11559;DHT22;5835;42.930;25.178;2022-09-09T12:26:03;34.10;56.50
11559;DHT22;5835;42.930;25.178;2022-09-09T12:28:49;33.10;55.90
11559;DHT22;5835;42.930;25.178;2022-09-09T12:31:24;33.70;58.10
11559;DHT22;5835;42.930;25.178;2022-09-09T12:33:54;33.10;58.30
11559;DHT22;5835;42.930;25.178;2022-09-09T12:36:24;32.30;58.50
11559;DHT22;5835;42.930;25.178;2022-09-09T12:38:53;32.20;60.60
11559;DHT22;5835;42.930;25.178;2022-09-09T12:41:24;32.20;61.70
11559;DHT22;5835;42.930;25.178;2022-09-09T12:44:03;32.20;62.60
11559;DHT22;5835;42.930;25.178;2022-09-09T12:46:38;32.00;63.50
11559;DHT22;5835;42.930;25.178;2022-09-09T12:49:26;32.00;64.40
11559;DHT22;5835;42.930;25.178;2022-09-09T12:51:54;31.90;65.50
11559;DHT22;5835;42.930;25.178;2022-09-09T12:54:23;31.40;65.30
11559;DHT22;5835;42.930;25.178;2022-09-09T12:56:52;31.20;66.70
11559;DHT22;5835;42.930;25.178;2022-09-09T12:59:25;31.00;66.20
11559;DHT22;5835;42.930;25.178;2022-09-09T13:01:56;30.90;67.10
11559;DHT22;5835;42.930;25.178;2022-09-09T13:04:24;30.50;66.80
11559;DHT22;5835;42.930;25.178;2022-09-09T13:06:52;30.30;68.50
11559;DHT22;5835;42.930;25.178;2022-09-09T13:09:21;30.00;68.40
11559;DHT22;5835;42.930;25.178;2022-09-09T13:11:52;30.30;70.00
11559;DHT22;5835;42.930;25.178;2022-09-09T13:14:31;30.00;69.80
11559;DHT22;5835;42.930;25.178;2022-09-09T13:17:02;30.30;71.80
11559;DHT22;5835;42.930;25.178;2022-09-09T13:19:33;30.60;71.50
11559;DHT22;5835;42.930;25.178;2022-09-09T13:22:12;30.40;71.20
11559;DHT22;5835;42.930;25.178;2022-09-09T13:24:40;30.10;72.50
11559;DHT22;5835;42.930;25.178;2022-09-09T13:27:25;30.00;73.60
11559;DHT22;5835;42.930;25.178;2022-09-09T13:29:55;30.00;73.80
11559;DHT22;5835;42.930;25.178;2022-09-09T13:32:24;30.00;74.50
11559;DHT22;5835;42.930;25.178;2022-09-09T13:34:53;29.60;75.50
11559;DHT22;5835;42.930;25.178;2022-09-09T13:37:25;29.70;76.00
11559;DHT22;5835;42.930;25.178;2022-09-09T13:39:54;29.70;75.90
11559;DHT22;5835;42.930;25.178;2022-09-09T13:42:25;29.60;75.30
11559;DHT22;5835;42.930;25.178;2022-09-09T13:44:54;29.50;76.10
11559;DHT22;5835;42.930;25.178;2022-09-09T13:47:28;29.60;76.30
11559;DHT22;5835;42.930;25.178;2022-09-09T13:49:56;29.50;77.00
11559;DHT22;5835;42.930;25.178;2022-09-09T13:52:24;29.40;78.00
11559;DHT22;5835;42.930;25.178;2022-09-09T13:54:53;29.30;77.60
11559;DHT22;5835;42.930;25.178;2022-09-09T13:57:24;29.30;77.40
11559;DHT22;5835;42.930;25.178;2022-09-09T13:59:53;29.20;77.30
11559;DHT22;5835;42.930;25.178;2022-09-09T14:02:22;29.40;78.90
11559;DHT22;5835;42.930;25.178;2022-09-09T14:04:50;29.40;79.40
11559;DHT22;5835;42.930;25.178;2022-09-09T14:07:21;29.30;79.40
11559;DHT22;5835;42.930;25.178;2022-09-09T14:09:49;29.10;79.40
11559;DHT22;5835;42.930;25.178;2022-09-09T14:12:18;29.20;80.30
11559;DHT22;5835;42.930;25.178;2022-09-09T14:14:47;28.90;81.80
11559;DHT22;5835;42.930;25.178;2022-09-09T14:17:15;28.60;82.10
11559;DHT22;5835;42.930;25.178;2022-09-09T14:19:43;28.60;82.20
11559;DHT22;5835;42.930;25.178;2022-09-09T14:22:13;28.50;83.70
11559;DHT22;5835;42.930;25.178;2022-09-09T14:24:41;28.40;83.40
11559;DHT22;5835;42.930;25.178;2022-09-09T14:27:08;28.60;84.30
11559;DHT22;5835;42.930;25.178;2022-09-09T14:29:36;28.50;84.40
11559;DHT22;5835;42.930;25.178;2022-09-09T14:32:05;28.40;84.70
11559;DHT22;5835;42.930;25.178;2022-09-09T14:34:33;28.40;84.40
11559;DHT22;5835;42.930;25.178;2022-09-09T14:37:01;28.70;85.70
11559;DHT22;5835;42.930;25.178;2022-09-09T14:39:29;28.70;84.40
11559;DHT22;5835;42.930;25.178;2022-09-09T14:41:56;28.60;86.10
11559;DHT22;5835;42.930;25.178;2022-09-09T14:44:24;28.60;85.50
11559;DHT22;5835;42.930;25.178;2022-09-09T14:46:52;28.60;85.90
11559;DHT22;5835;42.930;25.178;2022-09-09T14:49:21;28.60;86.50
11559;DHT22;5835;42.930;25.178;2022-09-09T14:51:49;28.70;88.50
11559;DHT22;5835;42.930;25.178;2022-09-09T14:54:16;28.70;88.50
11559;DHT22;5835;42.930;25.178;2022-09-09T14:56:44;28.70;88.60
11559;DHT22;5835;42.930;25.178;2022-09-09T14:59:13;28.70;88.70
11559;DHT22;5835;42.930;25.178;2022-09-09T15:01:41;28.60;89.20
11559;DHT22;5835;42.930;25.178;2022-09-09T15:04:13;28.50;89.20
11559;DHT22;5835;42.930;25.178;2022-09-09T15:06:44;28.50;89.80
11559;DHT22;5835;42.930;25.178;2022-09-09T15:09:14;28.50;90.00
11559;DHT22;5835;42.930;25.178;2022-09-09T15:11:42;28.70;89.70
11559;DHT22;5835;42.930;25.178;2022-09-09T15:14:10;28.80;89.50
11559;DHT22;5835;42.930;25.178;2022-09-09T15:16:38;28.90;89.70
11559;DHT22;5835;42.930;25.178;2022-09-09T15:19:07;28.90;90.70
11559;DHT22;5835;42.930;25.178;2022-09-09T15:21:36;29.00;92.30
11559;DHT22;5835;42.930;25.178;2022-09-09T15:24:06;29.00;92.60
11559;DHT22;5835;42.930;25.178;2022-09-09T15:26:34;29.00;90.70
11559;DHT22;5835;42.930;25.178;2022-09-09T15:29:04;28.80;92.20
11559;DHT22;5835;42.930;25.178;2022-09-09T15:31:31;28.80;92.10
11559;DHT22;5835;42.930;25.178;2022-09-09T15:34:00;28.70;92.30
11559;DHT22;5835;42.930;25.178;2022-09-09T15:36:30;28.60;92.20
11559;DHT22;5835;42.930;25.178;2022-09-09T15:38:58;28.50;92.10
11559;DHT22;5835;42.930;25.178;2022-09-09T15:41:28;28.40;92.40
11559;DHT22;5835;42.930;25.178;2022-09-09T15:43:56;28.30;93.70
11559;DHT22;5835;42.930;25.178;2022-09-09T15:46:28;28.10;94.60
11559;DHT22;5835;42.930;25.178;2022-09-09T15:48:57;27.90;95.60
11559;DHT22;5835;42.930;25.178;2022-09-09T15:51:25;27.70;96.80
11559;DHT22;5835;42.930;25.178;2022-09-09T15:53:58;27.60;96.80
11559;DHT22;5835;42.930;25.178;2022-09-09T15:56:28;27.70;96.80
11559;DHT22;5835;42.930;25.178;2022-09-09T15:58:58;27.50;96.20
11559;DHT22;5835;42.930;25.178;2022-09-09T16:01:26;27.30;96.10
11559;DHT22;5835;42.930;25.178;2022-09-09T16:03:54;27.40;97.50
11559;DHT22;5835;42.930;25.178;2022-09-09T16:06:24;27.30;99.10
11559;DHT22;5835;42.930;25.178;2022-09-09T16:08:55;27.20;99.10
11559;DHT22;5835;42.930;25.178;2022-09-09T16:11:24;27.30;99.00